マガダン の空港の天気 - METARとTAF

マガダン・ソコル空港 ( UHMM / GDX ) - ロシア マガダン
飛行場実況気象(Metar)
観測時間05/28 22:00 +11 (05/28 11:00 UTC)
風向・風速北西 1m/s
視程10km以上
天気現象
なし
気温5℃
湿度93%
気圧1004hPa
METARUHMM 281100Z 32001MPS 9999 NSC 05/04 Q1004 RMK QFE739
過去の天気等 Google飛行場航空写真 Wunderground天気予報

過去48時間のMETAR

飛行場予報(TAF)
発表時間: 5/28 21:50 +11 (5/28 10:50 UTC)
予報対象時間: 28日23時 +11 ~ 30日5時 +11
風向・風速南西 3m/s
視程10km以上
全天の4割程度の雲 雲底高度 2,130m
29日2時 +11 ~ 29日9時 +11 に一時的に
視程3,100m
天気現象もや
全天の8割程度の雲 雲底高度 240m
29日9時 +11 から
風向・風速東 3m/s 瞬間風速 8m/s
視程10km以上
全天の8割程度の積乱雲 雲底高度 910m
全天を覆う雲 雲底高度 2,130m
TAF UHMM 281050Z 2812/2918 22003MPS 9999 SCT070
TEMPO 2815/2822 3100 BR BKN008
FM282200 08003G08MPS 9999 BKN030CB OVC070